Manhattan Regional Airport
KMHK : rendu visible

Aérodrome :











RETROUVEZ-NOUS SUR...

 
LOGIN :

S'inscrire | Disclaimer

   EN    FR    IT 

 









Légende :    VFR   VFR Marginal   IFR   IFR Intensif   IFR Très Intensif
Visi : 
Plafond : 
>= 8 km
>= 3000ft
5 à 8 km
1000 à 3000 ft
1500m à 5 km
500 à 1000 ft
800 à 1500m
200 à 500 ft
< 800m
< 200 ft
Symboles :   Orages  Brouillard  Fortes neiges  Fortes précipitations  Vent > 20 kt






- Altitude de l'aérodrome : 1057 ft
- Code IATA : MHK


KMHK - Manhattan Regional

DERNIER METAR :
  • 201852Z 18017G27KT 10SM CLR 18/10 A2972 RMK AO2 PK WND 17028/1802 SLP062 T01830100

METARs EXPIRÉS :
  • 201752Z 18018G28KT 10SM CLR 18/09 A2975 RMK AO2 PK WND 18028/1751 SLP073 T01780089 10178 20117 56010
  • 201652Z 17017G24KT 10SM CLR 17/08 A2976 RMK AO2 PK WND 17028/1631 SLP075 T01670083

TAF KMHK
Valide du 20 à 18h jusqu'au 21 à 18h UTC


201746Z 2018/2118 18019G29KT P6SM BKN200
FM202300 18015G30KT 6SM -SHRA VCTS OVC024CB WS011/19045KT
FM210600 22012G26KT 6SM -SHRA BKN018
FM210900 28011G22KT P6SM VCSH BKN027
FM211100 29011G22KT P6SM BKN030



MET'MAP, la Météo Aéronautique d'un coup d'oeil ! - Copyright ORBIFLY Décembre 2007 - Disclaimer

ORBIFLY MET'MAP TEAM :

Programmation & Développement : Alexandra Zaïnal
Conception & Développement : Baudouin d'Aumeries
Co-Programmation & Développement : Marc-Olivier Méhu
Soutien technique & logistique : Manuel Goepfert

Contact : metmap@orbifly.com




SOURCES & CREDITS :

   NOAA       Earth
Advisory